createdAt,value
2022-10-15T00:03:08.303Z,14.41
2022-10-15T00:09:10.203Z,14.37
2022-10-15T00:15:12.618Z,14.37
2022-10-15T00:21:18.038Z,14.37
2022-10-15T00:27:20.038Z,14.42
2022-10-15T00:33:22.965Z,14.47
2022-10-15T00:39:24.992Z,14.43
2022-10-15T00:45:27.064Z,14.43
2022-10-15T00:51:36.938Z,14.44
2022-10-15T00:57:45.672Z,14.37
2022-10-15T01:03:47.820Z,14.45
2022-10-15T01:09:50.838Z,14.41
2022-10-15T01:16:20.699Z,14.40
2022-10-15T01:22:33.173Z,14.43
2022-10-15T01:28:43.394Z,14.38
2022-10-15T01:35:00.764Z,14.38
2022-10-15T01:47:32.694Z,14.43
2022-10-15T01:53:36.804Z,14.41
2022-10-15T01:59:39.040Z,14.44
2022-10-15T02:06:20.368Z,14.36
2022-10-15T02:12:38.608Z,14.46
2022-10-15T02:19:09.151Z,14.30
2022-10-15T02:25:20.996Z,14.31
2022-10-15T02:31:26.012Z,14.33
2022-10-15T02:37:29.399Z,14.38
2022-10-15T02:43:31.393Z,14.36
2022-10-15T02:49:33.301Z,14.33
2022-10-15T02:55:35.301Z,14.33
2022-10-15T03:01:37.185Z,14.33
2022-10-15T03:07:39.109Z,14.36
2022-10-15T03:13:41.582Z,14.31
2022-10-15T03:19:43.700Z,14.27
2022-10-15T03:25:45.559Z,14.33
2022-10-15T03:31:47.566Z,14.25
2022-10-15T03:37:49.426Z,14.14
2022-10-15T03:43:51.322Z,14.19
2022-10-15T03:56:18.752Z,14.12
2022-10-15T04:02:31.629Z,14.09
2022-10-15T04:09:04.470Z,14.13
2022-10-15T04:15:07.335Z,14.15
2022-10-15T04:21:11.591Z,14.13
2022-10-15T04:27:26.736Z,14.15
2022-10-15T04:33:32.137Z,14.15
2022-10-15T04:39:34.125Z,14.15
2022-10-15T04:45:35.983Z,14.18
2022-10-15T04:51:37.911Z,14.20
2022-10-15T04:57:39.774Z,14.14
2022-10-15T05:03:45.159Z,14.12
2022-10-15T05:09:52.889Z,14.14
2022-10-15T05:15:55.386Z,14.10
2022-10-15T05:21:57.547Z,14.12
2022-10-15T05:28:00.517Z,14.10
2022-10-15T05:34:15.551Z,14.20
2022-10-15T05:40:21.089Z,14.12
2022-10-15T05:46:24.762Z,14.12
2022-10-15T05:58:46.173Z,14.18
2022-10-15T06:04:49.379Z,14.18
2022-10-15T06:10:51.572Z,14.18
2022-10-15T06:23:19.836Z,14.29
2022-10-15T06:29:21.798Z,14.26
2022-10-15T06:35:25.238Z,14.37
2022-10-15T06:41:52.412Z,14.34
2022-10-15T06:47:54.356Z,14.50
2022-10-15T06:53:56.257Z,14.66
2022-10-15T06:59:58.945Z,14.75
2022-10-15T07:06:51.091Z,14.83
2022-10-15T07:12:54.946Z,14.94
2022-10-15T07:18:59.759Z,15.06
2022-10-15T07:25:45.048Z,15.17
2022-10-15T07:31:50.190Z,15.42
2022-10-15T07:38:02.239Z,15.52
2022-10-15T07:44:44.909Z,15.77
2022-10-15T07:50:46.806Z,15.68
2022-10-15T07:56:49.099Z,15.80
2022-10-15T08:02:51.012Z,15.64
2022-10-15T08:08:53.364Z,15.80
2022-10-15T08:14:55.345Z,15.70
2022-10-15T08:21:00.864Z,15.75
2022-10-15T08:27:04.947Z,15.75
2022-10-15T08:33:06.804Z,15.71
2022-10-15T08:39:10.328Z,15.62
2022-10-15T08:45:42.321Z,15.51
2022-10-15T08:58:38.223Z,16.40
2022-10-15T09:04:54.545Z,16.76
2022-10-15T09:11:22.533Z,16.86
2022-10-15T09:17:28.411Z,16.96
2022-10-15T09:23:33.689Z,17.18
2022-10-15T09:30:10.314Z,17.74
2022-10-15T09:36:31.598Z,18.22
2022-10-15T09:43:48.995Z,18.04
2022-10-15T09:49:52.530Z,18.00
2022-10-15T09:56:15.182Z,18.23
2022-10-15T10:02:24.153Z,18.31
2022-10-15T10:08:29.666Z,18.10
2022-10-15T10:14:36.863Z,18.05
2022-10-15T10:21:01.477Z,18.06
2022-10-15T10:27:17.571Z,18.36
2022-10-15T10:33:33.171Z,18.07
2022-10-15T10:39:39.215Z,18.13
2022-10-15T10:46:01.435Z,18.20
2022-10-15T10:52:04.440Z,18.65
2022-10-15T10:58:15.139Z,19.19
2022-10-15T11:04:25.981Z,19.34
2022-10-15T11:10:54.349Z,19.43
2022-10-15T11:17:00.026Z,19.02
2022-10-15T11:23:28.077Z,18.30
2022-10-15T11:29:39.041Z,18.28
2022-10-15T11:43:17.523Z,18.38
2022-10-15T11:49:43.656Z,18.80
2022-10-15T11:56:13.192Z,18.62
2022-10-15T12:02:39.335Z,18.95
2022-10-15T12:08:42.680Z,19.34
2022-10-15T12:15:40.706Z,19.14
2022-10-15T12:22:09.585Z,19.43
2022-10-15T12:28:27.097Z,19.31
2022-10-15T12:34:41.110Z,20.99
2022-10-15T12:40:43.329Z,21.03
2022-10-15T12:46:45.691Z,20.86
2022-10-15T12:53:25.367Z,20.61
2022-10-15T13:07:26.805Z,20.17
2022-10-15T13:13:30.191Z,20.15
2022-10-15T13:20:09.068Z,19.99
2022-10-15T13:26:27.311Z,19.76
2022-10-15T13:32:38.755Z,19.50
2022-10-15T13:38:43.994Z,19.16
2022-10-15T13:45:03.221Z,19.18
2022-10-15T13:51:06.244Z,19.05
2022-10-15T13:57:18.087Z,18.94
2022-10-15T14:03:27.194Z,19.12
2022-10-15T14:09:37.053Z,18.86
2022-10-15T14:15:45.032Z,19.26
2022-10-15T14:21:48.695Z,19.18
2022-10-15T14:27:50.926Z,19.03
2022-10-15T14:33:52.922Z,19.09
2022-10-15T14:40:09.747Z,18.99
2022-10-15T14:46:18.917Z,18.71
2022-10-15T14:52:22.856Z,18.73
2022-10-15T14:58:28.139Z,18.78
2022-10-15T15:04:40.967Z,18.43
2022-10-15T15:10:44.594Z,18.50
2022-10-15T15:16:46.510Z,18.46
2022-10-15T15:22:50.872Z,18.51
2022-10-15T15:28:53.005Z,18.19
2022-10-15T15:34:57.103Z,18.14
2022-10-15T15:41:24.881Z,18.11
2022-10-15T15:47:27.607Z,18.23
2022-10-15T15:53:30.029Z,18.04
2022-10-15T15:59:31.993Z,18.12
2022-10-15T16:06:06.492Z,17.73
2022-10-15T16:12:08.585Z,17.73
2022-10-15T16:18:12.086Z,18.05
2022-10-15T16:24:14.055Z,17.70
2022-10-15T16:30:16.436Z,17.81
2022-10-15T16:36:18.648Z,17.76
2022-10-15T16:42:20.689Z,17.34
2022-10-15T16:48:22.941Z,17.46
2022-10-15T16:54:27.705Z,17.47
2022-10-15T17:00:48.694Z,17.18
2022-10-15T17:13:09.883Z,17.02
2022-10-15T17:19:14.608Z,16.91
2022-10-15T17:25:22.087Z,16.80
2022-10-15T17:31:26.952Z,16.83
2022-10-15T17:44:19.200Z,17.15
2022-10-15T17:50:22.564Z,17.06
2022-10-15T17:56:28.500Z,16.85
2022-10-15T18:10:12.649Z,16.60
2022-10-15T18:16:14.821Z,16.34
2022-10-15T18:22:16.791Z,16.63
2022-10-15T18:28:19.551Z,16.36
2022-10-15T18:34:21.533Z,16.34
2022-10-15T18:40:23.409Z,16.49
2022-10-15T18:46:27.544Z,16.33
2022-10-15T18:52:39.421Z,16.35
2022-10-15T18:59:07.615Z,16.31
2022-10-15T19:12:55.967Z,16.44
2022-10-15T19:18:58.378Z,16.23
2022-10-15T19:25:00.423Z,16.38
2022-10-15T19:37:19.889Z,16.24
2022-10-15T19:43:23.552Z,16.10
2022-10-15T19:49:25.835Z,16.17
2022-10-15T20:02:54.106Z,16.20
2022-10-15T20:08:56.166Z,16.21
2022-10-15T20:14:58.199Z,16.51
2022-10-15T20:21:00.205Z,16.69
2022-10-15T20:27:02.144Z,17.06
2022-10-15T20:33:04.836Z,17.15
2022-10-15T20:39:07.357Z,17.41
2022-10-15T20:45:14.342Z,17.27
2022-10-15T20:51:18.810Z,17.26
2022-10-15T20:57:20.742Z,16.98
2022-10-15T21:03:22.786Z,16.93
2022-10-15T21:09:25.059Z,17.04
2022-10-15T21:15:27.417Z,16.95
2022-10-15T21:21:29.552Z,17.04
2022-10-15T21:27:31.467Z,16.81
2022-10-15T21:33:34.086Z,16.85
2022-10-15T21:39:36.038Z,16.74
2022-10-15T21:45:37.923Z,16.78
2022-10-15T21:51:40.745Z,16.71
2022-10-15T21:57:42.637Z,16.72
2022-10-15T22:03:45.794Z,16.48
2022-10-15T22:09:48.124Z,16.36
2022-10-15T22:15:50.124Z,16.04
2022-10-15T22:21:52.168Z,15.88
2022-10-15T22:27:57.232Z,15.68
2022-10-15T22:33:59.909Z,15.41
2022-10-15T22:40:03.380Z,15.33
2022-10-15T22:53:46.670Z,15.20
2022-10-15T22:59:48.553Z,15.05
2022-10-15T23:05:55.044Z,15.00
2022-10-15T23:11:57.042Z,14.86
2022-10-15T23:17:59.250Z,14.84
2022-10-15T23:24:02.169Z,14.84
2022-10-15T23:30:14.383Z,14.83
2022-10-15T23:36:25.007Z,14.87
2022-10-15T23:42:26.944Z,14.68
2022-10-15T23:48:29.145Z,14.63
2022-10-15T23:54:31.643Z,14.49
